createdAt,value
2018-07-30T00:02:51.914Z,24.41
2018-07-30T00:05:55.127Z,24.37
2018-07-30T00:08:58.402Z,24.34
2018-07-30T00:12:01.721Z,24.29
2018-07-30T00:15:05.133Z,24.28
2018-07-30T00:18:08.423Z,24.22
2018-07-30T00:21:11.707Z,24.21
2018-07-30T00:24:14.919Z,24.17
2018-07-30T00:27:18.205Z,24.15
2018-07-30T00:30:21.995Z,24.14
2018-07-30T00:33:25.208Z,24.07
2018-07-30T00:36:28.505Z,24.02
2018-07-30T00:39:31.807Z,23.97
2018-07-30T00:42:34.982Z,23.91
2018-07-30T00:45:38.303Z,23.88
2018-07-30T00:48:41.591Z,23.78
2018-07-30T00:51:44.880Z,23.81
2018-07-30T00:54:48.155Z,23.68
2018-07-30T00:57:52.087Z,23.67
2018-07-30T01:00:55.267Z,23.72
2018-07-30T01:03:58.511Z,23.77
2018-07-30T01:07:01.772Z,23.72
2018-07-30T01:10:05.202Z,23.73
2018-07-30T01:13:08.611Z,23.69
2018-07-30T01:16:11.892Z,23.63
2018-07-30T01:19:15.166Z,23.63
2018-07-30T01:22:18.386Z,23.61
2018-07-30T01:25:22.070Z,23.61
2018-07-30T01:28:25.255Z,23.59
2018-07-30T01:31:28.594Z,23.55
2018-07-30T01:34:31.711Z,23.46
2018-07-30T01:37:34.951Z,23.32
2018-07-30T01:40:38.258Z,23.29
2018-07-30T01:43:41.553Z,23.31
2018-07-30T01:46:44.846Z,23.32
2018-07-30T01:49:48.044Z,23.28
2018-07-30T01:52:51.938Z,23.22
2018-07-30T01:55:55.607Z,23.20
2018-07-30T01:58:58.850Z,23.20
2018-07-30T02:02:03.199Z,23.19
2018-07-30T02:05:06.496Z,23.20
2018-07-30T02:08:11.151Z,23.19
2018-07-30T02:11:14.523Z,23.16
2018-07-30T02:14:17.740Z,23.13
2018-07-30T02:17:22.172Z,23.08
2018-07-30T02:20:25.544Z,23.06
2018-07-30T02:23:28.827Z,23.03
2018-07-30T02:26:31.994Z,23.03
2018-07-30T02:29:35.332Z,23.03
2018-07-30T02:32:38.642Z,23.00
2018-07-30T02:35:41.908Z,22.92
2018-07-30T02:38:45.108Z,22.85
2018-07-30T02:41:48.383Z,22.86
2018-07-30T02:44:51.568Z,22.77
2018-07-30T02:47:54.775Z,22.73
2018-07-30T02:50:58.095Z,22.72
2018-07-30T02:54:01.459Z,22.66
2018-07-30T02:57:04.691Z,22.62
2018-07-30T03:00:08.635Z,22.59
2018-07-30T03:03:12.228Z,22.60
2018-07-30T03:06:15.518Z,22.56
2018-07-30T03:09:18.833Z,22.51
2018-07-30T03:12:22.960Z,22.53
2018-07-30T03:15:26.360Z,22.53
2018-07-30T03:18:29.547Z,22.49
2018-07-30T03:21:32.967Z,22.41
2018-07-30T03:24:36.302Z,22.35
2018-07-30T03:27:39.591Z,22.35
2018-07-30T03:30:42.802Z,22.39
2018-07-30T03:33:45.987Z,22.45
2018-07-30T03:36:49.345Z,22.38
2018-07-30T03:39:53.835Z,22.18
2018-07-30T03:42:57.143Z,22.08
2018-07-30T03:46:00.410Z,21.85
2018-07-30T03:49:03.837Z,21.83
2018-07-30T03:52:07.132Z,21.88
2018-07-30T03:55:10.459Z,21.97
2018-07-30T03:58:13.705Z,22.00
2018-07-30T04:01:16.933Z,22.01
2018-07-30T04:04:20.147Z,22.03
2018-07-30T04:07:24.103Z,21.99
2018-07-30T04:10:27.407Z,22.05
2018-07-30T04:13:30.687Z,22.07
2018-07-30T04:16:41.318Z,22.09
2018-07-30T04:19:44.600Z,22.11
2018-07-30T04:22:47.915Z,22.12
2018-07-30T04:25:52.170Z,22.15
2018-07-30T04:28:55.500Z,22.16
2018-07-30T04:31:58.803Z,22.17
2018-07-30T04:35:01.927Z,22.16
2018-07-30T04:38:05.543Z,22.15
2018-07-30T04:41:08.778Z,22.07
2018-07-30T04:44:12.055Z,22.13
2018-07-30T04:47:15.397Z,22.19
2018-07-30T04:50:18.775Z,22.22
2018-07-30T04:53:23.103Z,22.24
2018-07-30T04:56:26.394Z,22.32
2018-07-30T04:59:29.585Z,22.30
2018-07-30T05:02:32.879Z,22.30
2018-07-30T05:05:37.743Z,22.37
2018-07-30T05:08:41.021Z,22.39
2018-07-30T05:11:44.326Z,22.44
2018-07-30T05:14:47.651Z,22.50
2018-07-30T05:17:51.363Z,22.57
2018-07-30T05:20:54.607Z,22.65
2018-07-30T05:23:57.734Z,22.70
2018-07-30T05:27:00.883Z,22.69
2018-07-30T05:30:04.859Z,22.75
2018-07-30T05:33:08.145Z,22.80
2018-07-30T05:36:11.347Z,22.84
2018-07-30T05:39:14.582Z,22.92
2018-07-30T05:42:17.735Z,23.04
2018-07-30T05:45:21.452Z,23.18
2018-07-30T05:48:24.751Z,23.36
2018-07-30T05:51:28.041Z,23.46
2018-07-30T05:54:31.300Z,23.51
2018-07-30T05:57:34.681Z,23.61
2018-07-30T06:00:37.920Z,23.71
2018-07-30T06:03:42.256Z,23.85
2018-07-30T06:06:46.539Z,23.96
2018-07-30T06:09:49.833Z,24.10
2018-07-30T06:12:54.584Z,24.25
2018-07-30T06:15:57.990Z,24.42
2018-07-30T06:19:01.278Z,24.53
2018-07-30T06:22:04.583Z,24.61
2018-07-30T06:25:11.033Z,24.51
2018-07-30T06:28:14.230Z,24.40
2018-07-30T06:31:17.542Z,24.34
2018-07-30T06:34:21.481Z,24.25
2018-07-30T06:37:24.723Z,24.31
2018-07-30T06:40:28.047Z,24.52
2018-07-30T06:43:31.328Z,24.71
2018-07-30T06:46:34.648Z,24.88
2018-07-30T06:49:37.860Z,24.99
2018-07-30T06:52:41.158Z,25.08
2018-07-30T06:55:44.430Z,25.12
2018-07-30T06:58:47.831Z,25.26
2018-07-30T07:01:53.055Z,25.31
2018-07-30T07:04:56.419Z,25.46
2018-07-30T07:08:01.488Z,25.63
2018-07-30T07:11:04.706Z,25.60
2018-07-30T07:14:08.348Z,25.52
2018-07-30T07:17:11.742Z,25.76
2018-07-30T07:20:14.985Z,25.91
2018-07-30T07:23:18.195Z,25.93
2018-07-30T07:26:22.243Z,26.02
2018-07-30T07:29:25.588Z,26.15
2018-07-30T07:32:28.881Z,26.24
2018-07-30T07:35:33.066Z,26.44
2018-07-30T07:38:36.407Z,26.57
2018-07-30T07:41:39.951Z,26.78
2018-07-30T07:44:43.248Z,26.79
2018-07-30T07:47:46.544Z,26.80
2018-07-30T07:50:50.093Z,26.84
2018-07-30T07:53:53.843Z,27.03
2018-07-30T07:56:57.136Z,27.05
2018-07-30T08:00:00.466Z,27.19
2018-07-30T08:03:03.616Z,27.51
2018-07-30T08:06:07.871Z,27.75
2018-07-30T08:09:11.990Z,27.93
2018-07-30T08:12:15.248Z,27.78
2018-07-30T08:15:18.602Z,27.45
2018-07-30T08:18:22.485Z,27.50
2018-07-30T08:21:25.813Z,27.83
2018-07-30T08:24:29.059Z,27.91
2018-07-30T08:27:32.246Z,28.00
2018-07-30T08:30:35.514Z,28.42
2018-07-30T08:33:38.813Z,28.65
2018-07-30T08:36:42.190Z,28.89
2018-07-30T08:39:45.935Z,29.00
2018-07-30T08:42:49.161Z,28.72
2018-07-30T08:45:52.459Z,28.69
2018-07-30T08:48:55.902Z,29.10
2018-07-30T08:51:59.176Z,29.28
2018-07-30T08:55:02.456Z,29.08
2018-07-30T08:58:05.735Z,29.30
2018-07-30T09:01:08.971Z,29.49
2018-07-30T09:04:12.232Z,29.74
2018-07-30T09:07:15.515Z,30.00
2018-07-30T09:10:18.827Z,30.14
2018-07-30T09:13:22.121Z,30.46
2018-07-30T09:16:25.416Z,30.61
2018-07-30T09:19:28.844Z,30.83
2018-07-30T09:22:32.014Z,30.81
2018-07-30T09:25:35.318Z,30.92
2018-07-30T09:28:38.836Z,30.85
2018-07-30T09:31:42.100Z,30.86
2018-07-30T09:34:45.451Z,30.59
2018-07-30T09:37:49.060Z,30.81
2018-07-30T09:40:52.290Z,31.10
2018-07-30T09:43:55.491Z,31.33
2018-07-30T09:46:59.715Z,31.49
2018-07-30T09:50:03.028Z,31.51
2018-07-30T09:53:06.382Z,31.35
2018-07-30T09:56:09.645Z,31.21
2018-07-30T09:59:12.938Z,31.17
2018-07-30T10:02:17.184Z,31.32
2018-07-30T10:05:20.583Z,31.97
2018-07-30T10:08:23.874Z,32.25
2018-07-30T10:11:27.171Z,32.34
2018-07-30T10:14:30.307Z,32.46
2018-07-30T10:17:33.650Z,32.57
2018-07-30T10:20:36.923Z,32.77
2018-07-30T10:23:40.279Z,32.92
2018-07-30T10:26:43.523Z,33.10
2018-07-30T10:29:48.648Z,33.22
2018-07-30T10:32:52.278Z,33.09
2018-07-30T10:35:56.333Z,33.08
2018-07-30T10:39:00.176Z,33.22
2018-07-30T10:42:04.287Z,33.33
2018-07-30T10:45:07.553Z,33.46
2018-07-30T10:48:10.947Z,33.73
2018-07-30T10:51:14.221Z,33.71
2018-07-30T10:54:18.471Z,33.74
2018-07-30T10:57:21.699Z,33.61
2018-07-30T11:00:24.904Z,33.34
2018-07-30T11:03:28.218Z,33.26
2018-07-30T11:06:31.545Z,33.33
2018-07-30T11:09:34.934Z,33.55
2018-07-30T11:12:38.187Z,33.76
2018-07-30T11:15:41.522Z,33.91
2018-07-30T11:18:44.829Z,33.81
2018-07-30T11:21:49.076Z,34.04
2018-07-30T11:24:52.654Z,34.12
2018-07-30T11:27:55.982Z,34.09
2018-07-30T11:30:59.132Z,34.22
2018-07-30T11:34:02.379Z,34.08
2018-07-30T11:37:05.709Z,34.26
2018-07-30T11:40:09.072Z,34.51
2018-07-30T11:43:12.416Z,34.55
2018-07-30T11:46:15.705Z,34.74
2018-07-30T11:49:19.926Z,34.98
2018-07-30T11:52:23.447Z,34.70
2018-07-30T11:55:27.164Z,34.79
2018-07-30T11:58:30.439Z,34.90
2018-07-30T12:01:33.741Z,35.07
2018-07-30T12:04:36.944Z,34.99
2018-07-30T12:07:40.303Z,34.97
2018-07-30T12:10:43.550Z,34.80
2018-07-30T12:13:47.773Z,34.78
2018-07-30T12:16:50.910Z,34.77
2018-07-30T12:19:54.242Z,34.80
2018-07-30T12:22:57.500Z,35.08
2018-07-30T12:26:00.888Z,35.35
2018-07-30T12:29:04.127Z,35.29
2018-07-30T12:32:07.598Z,35.37
2018-07-30T12:35:10.923Z,35.32
2018-07-30T12:38:14.219Z,35.23
2018-07-30T12:41:17.432Z,35.16
2018-07-30T12:44:20.929Z,35.30
2018-07-30T12:47:24.194Z,35.26
2018-07-30T12:50:27.580Z,35.07
2018-07-30T12:53:30.839Z,35.28
2018-07-30T12:56:34.146Z,35.55
2018-07-30T12:59:37.979Z,35.76
2018-07-30T13:02:41.200Z,35.98
2018-07-30T13:05:45.455Z,36.18
2018-07-30T13:08:49.226Z,36.24
2018-07-30T13:11:52.650Z,36.01
2018-07-30T13:14:55.856Z,36.02
2018-07-30T13:17:59.183Z,36.01
2018-07-30T13:21:02.645Z,36.13
2018-07-30T13:24:07.900Z,36.16
2018-07-30T13:27:11.349Z,36.17
2018-07-30T13:30:14.480Z,36.15
2018-07-30T13:33:18.797Z,36.26
2018-07-30T13:36:22.280Z,36.31
2018-07-30T13:39:26.981Z,36.17
2018-07-30T13:42:30.889Z,36.24
2018-07-30T13:45:34.339Z,35.92
2018-07-30T13:48:38.711Z,35.92
2018-07-30T13:51:41.961Z,36.08
2018-07-30T13:54:47.805Z,36.29
2018-07-30T13:57:51.122Z,36.33
2018-07-30T14:00:54.419Z,36.41
2018-07-30T14:03:57.966Z,36.58
2018-07-30T14:07:01.320Z,36.32
2018-07-30T14:10:05.315Z,36.25
2018-07-30T14:13:08.582Z,36.45
2018-07-30T14:16:11.871Z,36.29
2018-07-30T14:19:15.208Z,36.39
2018-07-30T14:22:19.754Z,36.15
2018-07-30T14:25:23.156Z,35.94
2018-07-30T14:28:26.598Z,36.10
2018-07-30T14:31:29.850Z,36.15
2018-07-30T14:34:33.159Z,36.33
2018-07-30T14:37:36.336Z,36.63
2018-07-30T14:40:39.686Z,36.65
2018-07-30T14:43:42.924Z,36.92
2018-07-30T14:46:46.631Z,36.91
2018-07-30T14:49:50.812Z,36.99
2018-07-30T14:52:54.066Z,37.05
2018-07-30T14:55:57.489Z,36.95
2018-07-30T14:59:00.786Z,37.03
2018-07-30T15:02:04.128Z,36.52
2018-07-30T15:05:07.443Z,36.16
2018-07-30T15:08:10.746Z,36.29
2018-07-30T15:11:14.079Z,36.51
2018-07-30T15:14:17.359Z,36.71
2018-07-30T15:17:21.647Z,37.07
2018-07-30T15:20:24.878Z,36.92
2018-07-30T15:23:28.167Z,36.64
2018-07-30T15:26:31.447Z,36.32
2018-07-30T15:29:35.643Z,36.32
2018-07-30T15:32:38.904Z,36.76
2018-07-30T15:35:42.027Z,36.70
2018-07-30T15:38:45.319Z,36.84
2018-07-30T15:41:48.578Z,36.50
2018-07-30T15:44:51.831Z,36.72
2018-07-30T15:47:55.034Z,36.80
2018-07-30T15:50:58.347Z,36.48
2018-07-30T15:54:01.820Z,36.31
2018-07-30T15:57:04.932Z,36.61
2018-07-30T16:00:09.085Z,36.42
2018-07-30T16:03:12.232Z,36.13
2018-07-30T16:06:15.720Z,35.91
2018-07-30T16:09:18.960Z,35.85
2018-07-30T16:12:22.343Z,35.87
2018-07-30T16:15:25.495Z,35.91
2018-07-30T16:18:28.741Z,35.79
2018-07-30T16:21:32.041Z,35.69
2018-07-30T16:24:35.345Z,35.66
2018-07-30T16:27:38.523Z,35.57
2018-07-30T16:30:41.954Z,35.32
2018-07-30T16:33:45.103Z,35.27
2018-07-30T16:36:48.314Z,35.29
2018-07-30T16:39:52.719Z,35.50
2018-07-30T16:42:55.887Z,35.58
2018-07-30T16:45:59.235Z,35.56
2018-07-30T16:49:02.539Z,35.62
2018-07-30T16:52:05.979Z,35.57
2018-07-30T16:55:09.251Z,35.26
2018-07-30T16:58:12.532Z,35.20
2018-07-30T17:01:15.812Z,35.10
2018-07-30T17:04:20.093Z,35.21
2018-07-30T17:07:23.407Z,35.33
2018-07-30T17:10:26.634Z,35.16
2018-07-30T17:13:30.388Z,35.17
2018-07-30T17:16:33.627Z,35.34
2018-07-30T17:19:36.931Z,35.40
2018-07-30T17:22:40.676Z,35.22
2018-07-30T17:25:43.959Z,34.99
2018-07-30T17:28:47.275Z,34.95
2018-07-30T17:31:51.391Z,34.91
2018-07-30T17:34:54.523Z,34.95
2018-07-30T17:37:59.735Z,34.86
2018-07-30T17:41:03.013Z,34.68
2018-07-30T17:44:06.530Z,34.61
2018-07-30T17:47:09.804Z,34.57
2018-07-30T17:50:13.128Z,34.45
2018-07-30T17:53:16.541Z,34.40
2018-07-30T17:56:21.331Z,34.36
2018-07-30T17:59:24.611Z,34.24
2018-07-30T18:02:27.908Z,34.20
2018-07-30T18:05:31.132Z,34.16
2018-07-30T18:08:34.575Z,34.12
2018-07-30T18:11:37.947Z,34.12
2018-07-30T18:14:41.196Z,34.06
2018-07-30T18:17:44.387Z,34.00
2018-07-30T18:20:47.639Z,33.98
2018-07-30T18:23:52.352Z,33.96
2018-07-30T18:26:55.560Z,33.95
2018-07-30T18:29:59.072Z,33.87
2018-07-30T18:33:02.384Z,33.81
2018-07-30T18:36:05.664Z,33.78
2018-07-30T18:39:08.989Z,33.73
2018-07-30T18:42:12.367Z,33.64
2018-07-30T18:45:15.602Z,33.46
2018-07-30T18:48:18.941Z,33.33
2018-07-30T18:51:22.263Z,33.21
2018-07-30T18:54:25.558Z,33.15
2018-07-30T18:57:28.759Z,33.02
2018-07-30T19:00:32.022Z,32.93
2018-07-30T19:03:35.353Z,32.87
2018-07-30T19:06:38.739Z,32.79
2018-07-30T19:09:42.234Z,32.63
2018-07-30T19:12:45.557Z,32.47
2018-07-30T19:15:49.457Z,32.32
2018-07-30T19:18:52.598Z,32.24
2018-07-30T19:21:55.950Z,32.15
2018-07-30T19:24:59.156Z,32.00
2018-07-30T19:28:02.446Z,31.85
2018-07-30T19:31:05.844Z,31.73
2018-07-30T19:34:09.114Z,31.58
2018-07-30T19:37:12.382Z,31.45
2018-07-30T19:40:15.597Z,31.33
2018-07-30T19:43:18.788Z,31.17
2018-07-30T19:46:22.406Z,30.95
2018-07-30T19:49:25.699Z,30.96
2018-07-30T19:52:29.063Z,30.96
2018-07-30T19:55:32.530Z,30.86
2018-07-30T19:58:35.991Z,30.73
2018-07-30T20:01:39.128Z,30.67
2018-07-30T20:04:42.399Z,30.57
2018-07-30T20:07:45.699Z,30.51
2018-07-30T20:10:49.028Z,30.44
2018-07-30T20:13:52.443Z,30.42
2018-07-30T20:16:55.719Z,30.34
2018-07-30T20:19:59.032Z,30.29
2018-07-30T20:23:02.243Z,30.29
2018-07-30T20:26:10.606Z,30.27
2018-07-30T20:29:13.783Z,30.25
2018-07-30T20:32:17.075Z,30.19
2018-07-30T20:35:20.270Z,30.04
2018-07-30T20:38:23.704Z,29.96
2018-07-30T20:41:26.970Z,29.92
2018-07-30T20:44:30.304Z,29.86
2018-07-30T20:47:33.584Z,29.88
2018-07-30T20:50:36.896Z,29.87
2018-07-30T20:53:40.208Z,29.83
2018-07-30T20:56:43.526Z,29.81
2018-07-30T20:59:46.775Z,29.81
2018-07-30T21:02:50.080Z,29.77
2018-07-30T21:05:53.666Z,29.71
2018-07-30T21:08:56.952Z,29.62
2018-07-30T21:12:00.295Z,29.53
2018-07-30T21:15:03.563Z,29.46
2018-07-30T21:18:06.835Z,29.41
2018-07-30T21:21:10.204Z,29.27
2018-07-30T21:24:13.460Z,29.23
2018-07-30T21:27:16.734Z,29.20
2018-07-30T21:30:20.535Z,29.11
2018-07-30T21:33:23.857Z,29.05
2018-07-30T21:36:27.052Z,29.02
2018-07-30T21:39:30.423Z,28.94
2018-07-30T21:42:33.531Z,28.84
2018-07-30T21:45:37.044Z,28.73
2018-07-30T21:48:41.342Z,28.67
2018-07-30T21:51:44.879Z,28.63
2018-07-30T21:54:48.151Z,28.55
2018-07-30T21:57:52.154Z,28.47
2018-07-30T22:00:55.554Z,28.41
2018-07-30T22:03:58.763Z,28.27
2018-07-30T22:07:02.082Z,28.15
2018-07-30T22:10:05.378Z,28.13
2018-07-30T22:13:08.638Z,28.15
2018-07-30T22:16:12.860Z,28.12
2018-07-30T22:19:16.178Z,28.01
2018-07-30T22:22:23.047Z,27.93
2018-07-30T22:25:26.350Z,27.82
2018-07-30T22:28:29.635Z,27.73
2018-07-30T22:31:32.830Z,27.68
2018-07-30T22:34:36.067Z,27.62
2018-07-30T22:37:39.385Z,27.52
2018-07-30T22:40:42.672Z,27.44
2018-07-30T22:43:45.918Z,27.44
2018-07-30T22:46:49.886Z,27.44
2018-07-30T22:49:53.099Z,27.43
2018-07-30T22:52:56.347Z,27.36
2018-07-30T22:55:59.637Z,27.29
2018-07-30T22:59:02.965Z,27.19
2018-07-30T23:02:06.232Z,27.12
2018-07-30T23:05:09.546Z,27.11
2018-07-30T23:08:12.821Z,27.05
2018-07-30T23:11:16.005Z,27.05
2018-07-30T23:14:19.349Z,26.99
2018-07-30T23:17:22.615Z,26.86
2018-07-30T23:20:25.812Z,26.77
2018-07-30T23:23:29.130Z,26.75
2018-07-30T23:26:32.406Z,26.71
2018-07-30T23:29:35.611Z,26.67
2018-07-30T23:32:38.940Z,26.63
2018-07-30T23:35:42.188Z,26.55
2018-07-30T23:38:45.715Z,26.43
2018-07-30T23:41:48.998Z,26.42
2018-07-30T23:44:53.258Z,26.36
2018-07-30T23:47:57.602Z,26.32
2018-07-30T23:51:00.931Z,26.24
2018-07-30T23:54:04.172Z,26.26
2018-07-30T23:57:07.443Z,26.27
